createdAt,value
2023-06-13T00:00:27.625Z,19.20
2023-06-13T00:02:54.910Z,19.30
2023-06-13T00:05:22.344Z,19.30
2023-06-13T00:07:50.863Z,19.20
2023-06-13T00:10:17.758Z,19.30
2023-06-13T00:12:45.757Z,19.20
2023-06-13T00:15:16.738Z,19.30
2023-06-13T00:17:43.633Z,19.20
2023-06-13T00:20:10.981Z,19.10
2023-06-13T00:22:38.259Z,19.00
2023-06-13T00:25:05.468Z,18.80
2023-06-13T00:27:33.288Z,18.90
2023-06-13T00:30:00.106Z,18.90
2023-06-13T00:32:26.859Z,18.80
2023-06-13T00:34:53.541Z,18.80
2023-06-13T00:37:21.877Z,18.70
2023-06-13T00:39:48.656Z,18.70
2023-06-13T00:42:15.436Z,18.60
2023-06-13T00:44:42.117Z,18.60
2023-06-13T00:47:09.066Z,18.50
2023-06-13T00:49:35.989Z,18.70
2023-06-13T00:52:05.661Z,18.50
2023-06-13T00:54:37.669Z,18.50
2023-06-13T00:57:06.618Z,18.50
2023-06-13T00:59:33.814Z,18.40
2023-06-13T01:02:00.924Z,18.30
2023-06-13T01:04:28.693Z,18.40
2023-06-13T01:06:55.549Z,18.30
2023-06-13T01:09:23.182Z,18.30
2023-06-13T01:12:19.377Z,18.10
2023-06-13T01:14:56.671Z,18.10
2023-06-13T01:17:28.208Z,18.20
2023-06-13T01:19:59.733Z,18.10
2023-06-13T01:22:44.384Z,18.10
2023-06-13T01:25:46.544Z,18.00
2023-06-13T01:28:14.491Z,17.90
2023-06-13T01:30:42.701Z,18.00
2023-06-13T01:33:10.677Z,18.00
2023-06-13T01:35:38.620Z,18.00
2023-06-13T01:38:06.014Z,17.90
2023-06-13T01:40:32.836Z,17.80
2023-06-13T01:42:59.526Z,17.80
2023-06-13T01:45:26.889Z,17.80
2023-06-13T01:47:56.637Z,17.90
2023-06-13T01:50:51.899Z,17.80
2023-06-13T01:53:50.869Z,17.60
2023-06-13T01:56:20.504Z,17.60
2023-06-13T01:58:54.513Z,17.60
2023-06-13T02:01:22.120Z,17.40
2023-06-13T02:03:49.056Z,17.50
2023-06-13T02:06:16.454Z,17.50
2023-06-13T02:08:44.697Z,17.40
2023-06-13T02:11:11.595Z,17.30
2023-06-13T02:13:38.703Z,17.30
2023-06-13T02:16:05.913Z,17.40
2023-06-13T02:18:33.146Z,17.30
2023-06-13T02:20:59.909Z,17.50
2023-06-13T02:23:26.768Z,17.30
2023-06-13T02:25:53.538Z,17.40
2023-06-13T02:28:20.557Z,17.40
2023-06-13T02:30:48.042Z,17.30
2023-06-13T02:33:15.382Z,17.40
2023-06-13T02:35:43.424Z,17.40
2023-06-13T02:38:10.129Z,17.40
2023-06-13T02:40:40.046Z,17.40
2023-06-13T02:43:06.782Z,17.20
2023-06-13T02:45:33.621Z,17.10
2023-06-13T02:48:01.160Z,17.10
2023-06-13T02:50:27.968Z,17.00
2023-06-13T02:52:54.884Z,17.10
2023-06-13T02:55:21.791Z,17.10
2023-06-13T02:57:48.647Z,17.20
2023-06-13T03:00:18.739Z,17.10
2023-06-13T03:02:45.557Z,16.90
2023-06-13T03:05:17.020Z,16.90
2023-06-13T03:07:47.379Z,16.90
2023-06-13T03:10:16.930Z,16.90
2023-06-13T03:12:44.005Z,16.90
2023-06-13T03:15:12.867Z,16.80
2023-06-13T03:17:40.388Z,16.90
2023-06-13T03:20:07.651Z,16.80
2023-06-13T03:22:34.469Z,16.90
2023-06-13T03:25:04.077Z,16.90
2023-06-13T03:27:31.241Z,16.80
2023-06-13T03:29:57.909Z,16.70
2023-06-13T03:32:24.657Z,16.80
2023-06-13T03:34:53.849Z,16.80
2023-06-13T03:37:21.163Z,16.70
2023-06-13T03:39:48.050Z,16.70
2023-06-13T03:42:14.771Z,16.80
2023-06-13T03:44:47.697Z,16.80
2023-06-13T03:47:15.181Z,16.90
2023-06-13T03:49:42.260Z,16.90
2023-06-13T03:52:09.165Z,16.70
2023-06-13T03:54:35.917Z,16.90
2023-06-13T03:57:03.430Z,16.60
2023-06-13T03:59:30.188Z,16.60
2023-06-13T04:01:56.869Z,16.50
2023-06-13T04:04:23.615Z,16.50
2023-06-13T04:06:50.324Z,16.50
2023-06-13T04:09:17.028Z,16.60
2023-06-13T04:11:43.754Z,16.60
2023-06-13T04:14:10.474Z,16.80
2023-06-13T04:16:37.217Z,16.80
2023-06-13T04:19:04.088Z,16.90
2023-06-13T04:21:31.234Z,16.90
2023-06-13T04:23:58.075Z,16.90
2023-06-13T04:26:25.102Z,17.10
2023-06-13T04:28:51.982Z,17.20
2023-06-13T04:31:20.259Z,17.10
2023-06-13T04:33:47.887Z,17.10
2023-06-13T04:36:15.104Z,17.20
2023-06-13T04:38:45.106Z,17.30
2023-06-13T04:41:12.121Z,17.40
2023-06-13T04:43:40.138Z,17.70
2023-06-13T04:46:09.875Z,17.80
2023-06-13T04:48:37.476Z,17.90
2023-06-13T04:51:05.277Z,17.50
2023-06-13T04:53:33.853Z,17.70
2023-06-13T04:56:00.749Z,17.80
2023-06-13T04:58:27.671Z,17.70
2023-06-13T05:00:55.735Z,17.80
2023-06-13T05:03:22.876Z,17.80
2023-06-13T05:05:51.214Z,17.90
2023-06-13T05:08:22.577Z,17.90
2023-06-13T05:10:49.281Z,17.80
2023-06-13T05:13:16.010Z,18.00
2023-06-13T05:15:48.850Z,17.90
2023-06-13T05:18:15.869Z,17.90
2023-06-13T05:20:44.184Z,17.90
2023-06-13T05:23:11.918Z,17.70
2023-06-13T05:25:38.689Z,18.00
2023-06-13T05:28:05.629Z,18.20
2023-06-13T05:30:32.351Z,18.30
2023-06-13T05:32:59.216Z,17.80
2023-06-13T05:35:25.978Z,18.00
2023-06-13T05:37:52.807Z,18.10
2023-06-13T05:40:20.038Z,18.20
2023-06-13T05:42:47.288Z,18.00
2023-06-13T05:45:14.131Z,18.30
2023-06-13T05:47:40.866Z,18.20
2023-06-13T05:50:07.874Z,18.40
2023-06-13T05:52:35.043Z,18.80
2023-06-13T05:55:02.809Z,18.90
2023-06-13T05:57:40.369Z,18.60
2023-06-13T06:00:16.483Z,18.70
2023-06-13T06:02:48.286Z,18.80
2023-06-13T06:05:15.763Z,19.00
2023-06-13T06:07:43.874Z,19.20
2023-06-13T06:10:12.589Z,19.30
2023-06-13T06:12:40.330Z,19.40
2023-06-13T06:15:07.580Z,19.20
2023-06-13T06:17:34.470Z,19.30
2023-06-13T06:20:01.551Z,19.10
2023-06-13T06:22:28.419Z,19.30
2023-06-13T06:24:55.124Z,19.60
2023-06-13T06:27:21.909Z,19.50
2023-06-13T06:29:48.645Z,19.50
2023-06-13T06:32:15.502Z,19.20
2023-06-13T06:34:42.286Z,19.40
2023-06-13T06:37:10.693Z,19.30
2023-06-13T06:39:39.752Z,19.30
2023-06-13T06:42:06.713Z,19.80
2023-06-13T06:44:44.366Z,20.10
2023-06-13T06:47:12.183Z,19.90
2023-06-13T06:49:39.017Z,19.70
2023-06-13T06:52:06.181Z,19.90
2023-06-13T06:54:33.175Z,20.20
2023-06-13T06:57:00.135Z,20.30
2023-06-13T06:59:26.914Z,20.50
2023-06-13T07:01:53.714Z,20.40
2023-06-13T07:04:20.588Z,20.30
2023-06-13T07:06:47.482Z,20.20
2023-06-13T07:09:14.582Z,20.50
2023-06-13T07:11:41.447Z,20.90
2023-06-13T07:14:08.663Z,21.00
2023-06-13T07:16:35.496Z,21.20
2023-06-13T07:19:02.313Z,20.70
2023-06-13T07:21:30.300Z,21.10
2023-06-13T07:24:05.909Z,21.30
2023-06-13T07:26:33.282Z,21.40
2023-06-13T07:28:59.951Z,21.20
2023-06-13T07:31:27.302Z,21.20
2023-06-13T07:33:54.108Z,21.10
2023-06-13T07:36:20.807Z,21.50
2023-06-13T07:38:47.515Z,20.90
2023-06-13T07:41:14.429Z,21.20
2023-06-13T07:43:41.552Z,21.70
2023-06-13T07:46:08.350Z,21.80
2023-06-13T07:48:35.191Z,21.70
2023-06-13T07:51:03.384Z,22.10
2023-06-13T07:53:30.105Z,22.00
2023-06-13T07:55:57.132Z,22.10
2023-06-13T07:58:24.001Z,22.40
2023-06-13T08:00:51.441Z,22.40
2023-06-13T08:03:18.393Z,22.60
2023-06-13T08:05:45.258Z,22.10
2023-06-13T08:08:11.997Z,22.40
2023-06-13T08:10:38.741Z,22.60
2023-06-13T08:13:05.610Z,22.80
2023-06-13T08:15:32.405Z,22.50
2023-06-13T08:17:59.548Z,21.90
2023-06-13T08:20:26.291Z,22.60
2023-06-13T08:22:53.017Z,22.50
2023-06-13T08:25:19.828Z,22.60
2023-06-13T08:27:47.392Z,22.70
2023-06-13T08:30:15.208Z,22.80
2023-06-13T08:32:42.749Z,22.90
2023-06-13T08:35:10.108Z,23.10
2023-06-13T08:37:37.072Z,23.30
2023-06-13T08:40:06.685Z,23.20
2023-06-13T08:42:33.794Z,23.00
2023-06-13T08:45:01.844Z,23.20
2023-06-13T08:50:01.311Z,22.90
2023-06-13T08:52:31.988Z,23.20
2023-06-13T08:55:10.700Z,22.80
2023-06-13T08:57:46.944Z,23.20
2023-06-13T09:00:16.660Z,23.80
2023-06-13T09:02:46.511Z,23.30
2023-06-13T09:05:16.476Z,23.10
2023-06-13T09:07:44.523Z,23.60
2023-06-13T09:10:12.725Z,23.60
2023-06-13T09:12:44.831Z,24.00
2023-06-13T09:15:12.477Z,24.10
2023-06-13T09:17:39.961Z,23.80
2023-06-13T09:20:09.221Z,24.00
2023-06-13T09:22:37.257Z,24.20
2023-06-13T09:25:05.901Z,24.10
2023-06-13T09:27:33.114Z,24.50
2023-06-13T09:30:02.014Z,24.50
2023-06-13T09:32:28.978Z,24.30
2023-06-13T09:34:56.362Z,24.20
2023-06-13T09:37:26.446Z,24.40
2023-06-13T09:42:46.914Z,24.40
2023-06-13T09:45:17.245Z,24.80
2023-06-13T09:47:44.600Z,24.50
2023-06-13T09:50:11.638Z,24.40
2023-06-13T09:52:38.444Z,24.50
2023-06-13T09:55:05.812Z,24.40
2023-06-13T09:57:47.944Z,24.50
2023-06-13T10:00:21.438Z,24.70
2023-06-13T10:02:48.266Z,25.10
2023-06-13T10:05:15.188Z,24.60
2023-06-13T10:07:42.009Z,24.40
2023-06-13T10:10:09.082Z,24.50
2023-06-13T10:12:41.144Z,24.60
2023-06-13T10:15:08.728Z,24.60
2023-06-13T10:17:43.482Z,24.80
2023-06-13T10:20:12.692Z,24.90
2023-06-13T10:22:40.612Z,25.00
2023-06-13T10:25:09.771Z,24.90
2023-06-13T10:27:46.877Z,25.10
2023-06-13T10:30:32.727Z,24.70
2023-06-13T10:33:18.069Z,25.30
2023-06-13T10:36:04.068Z,25.40
2023-06-13T10:38:49.632Z,25.60
2023-06-13T10:41:47.106Z,25.60
2023-06-13T10:44:34.234Z,25.20
2023-06-13T10:47:02.756Z,25.50
2023-06-13T10:49:38.668Z,25.40
2023-06-13T10:52:10.957Z,25.20
2023-06-13T10:54:37.839Z,25.40
2023-06-13T10:57:06.296Z,25.80
2023-06-13T10:59:37.905Z,26.20
2023-06-13T11:02:06.123Z,25.60
2023-06-13T11:04:33.527Z,25.40
2023-06-13T11:07:22.122Z,25.20
2023-06-13T11:10:05.147Z,25.20
2023-06-13T11:12:32.954Z,25.50
2023-06-13T11:15:01.467Z,25.90
2023-06-13T11:17:29.145Z,25.60
2023-06-13T11:19:57.272Z,25.90
2023-06-13T11:22:24.430Z,26.00
2023-06-13T11:24:53.987Z,25.80
2023-06-13T11:27:20.845Z,25.90
2023-06-13T11:29:49.082Z,25.70
2023-06-13T11:32:17.118Z,26.00
2023-06-13T11:34:49.401Z,25.80
2023-06-13T11:37:25.109Z,25.80
2023-06-13T11:40:17.729Z,25.60
2023-06-13T11:42:44.129Z,25.90
2023-06-13T11:45:11.037Z,25.60
2023-06-13T11:47:37.909Z,25.80
2023-06-13T11:50:05.295Z,25.80
2023-06-13T11:52:32.454Z,25.90
2023-06-13T11:55:00.836Z,26.20
2023-06-13T11:57:46.169Z,25.90
2023-06-13T12:00:13.954Z,26.10
2023-06-13T12:02:41.412Z,25.60
2023-06-13T12:05:11.680Z,25.40
2023-06-13T12:07:38.470Z,25.60
2023-06-13T12:10:05.497Z,26.10
2023-06-13T12:12:32.293Z,26.00
2023-06-13T12:14:59.098Z,25.60
2023-06-13T12:17:27.742Z,26.10
2023-06-13T12:20:10.374Z,25.60
2023-06-13T12:22:37.372Z,25.80
2023-06-13T12:25:05.889Z,26.00
2023-06-13T12:27:33.943Z,26.10
2023-06-13T12:30:14.689Z,26.00
2023-06-13T12:32:44.879Z,25.90
2023-06-13T12:35:12.477Z,26.40
2023-06-13T12:37:41.952Z,26.40
2023-06-13T12:40:13.733Z,26.50
2023-06-13T12:42:43.872Z,26.20
2023-06-13T12:45:15.388Z,26.40
2023-06-13T12:47:42.726Z,26.30
2023-06-13T12:50:11.336Z,26.60
2023-06-13T12:52:39.428Z,26.80
2023-06-13T12:55:06.556Z,26.90
2023-06-13T12:57:34.118Z,26.70
2023-06-13T13:00:01.520Z,26.80
2023-06-13T13:02:28.502Z,26.60
2023-06-13T13:05:05.107Z,26.50
2023-06-13T13:07:32.481Z,26.50
2023-06-13T13:10:03.125Z,26.70
2023-06-13T13:12:29.945Z,26.80
2023-06-13T13:14:57.887Z,26.70
2023-06-13T13:17:25.709Z,26.60
2023-06-13T13:19:54.405Z,26.90
2023-06-13T13:22:22.502Z,27.20
2023-06-13T13:24:49.265Z,27.10
2023-06-13T13:27:16.378Z,26.80
2023-06-13T13:29:43.114Z,26.70
2023-06-13T13:32:11.119Z,26.80
2023-06-13T13:34:38.142Z,26.40
2023-06-13T13:37:05.143Z,26.40
2023-06-13T13:39:31.824Z,26.60
2023-06-13T13:42:00.573Z,26.70
2023-06-13T13:44:29.260Z,26.70
2023-06-13T13:46:56.050Z,26.50
2023-06-13T13:49:22.897Z,26.70
2023-06-13T13:51:49.993Z,26.80
2023-06-13T13:54:17.016Z,26.90
2023-06-13T13:56:45.002Z,26.70
2023-06-13T13:59:12.120Z,26.70
2023-06-13T14:01:38.934Z,26.90
2023-06-13T14:04:05.933Z,27.00
2023-06-13T14:06:32.657Z,27.00
2023-06-13T14:09:02.344Z,26.80
2023-06-13T14:11:29.621Z,26.80
2023-06-13T14:13:58.735Z,26.90
2023-06-13T14:16:25.614Z,27.10
2023-06-13T14:18:52.533Z,26.80
2023-06-13T14:21:19.262Z,27.10
2023-06-13T14:23:46.986Z,27.10
2023-06-13T14:26:13.829Z,27.10
2023-06-13T14:28:42.460Z,27.10
2023-06-13T14:31:10.251Z,27.10
2023-06-13T14:33:39.331Z,26.90
2023-06-13T14:36:06.397Z,26.70
2023-06-13T14:38:38.612Z,26.60
2023-06-13T14:41:08.550Z,26.80
2023-06-13T14:43:35.794Z,26.70
2023-06-13T14:46:05.397Z,26.60
2023-06-13T14:48:32.812Z,26.70
2023-06-13T14:51:02.765Z,26.70
2023-06-13T14:53:31.471Z,26.90
2023-06-13T14:55:58.992Z,26.90
2023-06-13T14:58:25.986Z,26.80
2023-06-13T15:00:52.720Z,26.70
2023-06-13T15:03:19.376Z,26.80
2023-06-13T15:05:46.138Z,27.00
2023-06-13T15:08:12.957Z,27.20
2023-06-13T15:10:39.862Z,27.00
2023-06-13T15:13:06.594Z,27.10
2023-06-13T15:15:35.337Z,27.00
2023-06-13T15:18:02.247Z,26.80
2023-06-13T15:20:31.260Z,26.70
2023-06-13T15:22:58.087Z,26.60
2023-06-13T15:25:24.940Z,26.60
2023-06-13T15:27:51.673Z,26.70
2023-06-13T15:30:18.621Z,26.90
2023-06-13T15:32:45.783Z,27.00
2023-06-13T15:35:12.598Z,26.90
2023-06-13T15:37:40.205Z,27.00
2023-06-13T15:40:07.614Z,27.20
2023-06-13T15:42:34.398Z,27.30
2023-06-13T15:45:01.181Z,27.20
2023-06-13T15:47:28.030Z,27.00
2023-06-13T15:49:54.851Z,26.90
2023-06-13T15:52:21.661Z,26.60
2023-06-13T15:54:48.778Z,26.80
2023-06-13T15:57:15.568Z,26.80
2023-06-13T15:59:42.488Z,26.80
2023-06-13T16:02:09.337Z,26.60
2023-06-13T16:04:36.012Z,26.50
2023-06-13T16:07:02.855Z,26.40
2023-06-13T16:09:30.408Z,26.60
2023-06-13T16:11:57.184Z,26.40
2023-06-13T16:14:24.037Z,26.50
2023-06-13T16:16:50.802Z,26.60
2023-06-13T16:19:17.588Z,26.50
2023-06-13T16:21:44.358Z,26.60
2023-06-13T16:24:11.498Z,26.40
2023-06-13T16:26:38.744Z,26.50
2023-06-13T16:29:05.565Z,26.80
2023-06-13T16:31:32.348Z,26.80
2023-06-13T16:33:59.200Z,26.50
2023-06-13T16:36:25.944Z,26.60
2023-06-13T16:38:55.650Z,26.80
2023-06-13T16:41:23.721Z,26.70
2023-06-13T16:43:50.479Z,26.70
2023-06-13T16:46:18.755Z,26.80
2023-06-13T16:48:45.558Z,26.50
2023-06-13T16:51:12.301Z,26.40
2023-06-13T16:53:39.168Z,26.50
2023-06-13T16:56:06.259Z,26.30
2023-06-13T16:58:33.047Z,26.30
2023-06-13T17:00:59.773Z,26.30
2023-06-13T17:03:27.057Z,26.40
2023-06-13T17:05:53.979Z,26.30
2023-06-13T17:08:20.997Z,26.20
2023-06-13T17:10:47.924Z,26.30
2023-06-13T17:13:14.701Z,26.50
2023-06-13T17:15:43.681Z,26.50
2023-06-13T17:18:10.502Z,26.40
2023-06-13T17:20:37.211Z,26.20
2023-06-13T17:23:04.077Z,26.20
2023-06-13T17:25:31.000Z,26.30
2023-06-13T17:27:57.844Z,26.10
2023-06-13T17:30:24.670Z,26.20
2023-06-13T17:32:51.772Z,25.80
2023-06-13T17:35:19.171Z,26.00
2023-06-13T17:37:46.307Z,25.90
2023-06-13T17:40:13.103Z,25.50
2023-06-13T17:42:40.360Z,25.40
2023-06-13T17:45:08.010Z,25.60
2023-06-13T17:47:36.045Z,25.60
2023-06-13T17:50:03.348Z,25.70
2023-06-13T17:52:30.136Z,25.70
2023-06-13T17:54:56.867Z,25.70
2023-06-13T17:57:25.068Z,25.50
2023-06-13T17:59:51.911Z,25.60
2023-06-13T18:02:18.749Z,25.80
2023-06-13T18:04:45.682Z,25.90
2023-06-13T18:07:13.038Z,25.70
2023-06-13T18:09:39.788Z,25.70
2023-06-13T18:12:20.042Z,25.50
2023-06-13T18:14:48.781Z,25.40
2023-06-13T18:17:16.565Z,25.30
2023-06-13T18:19:43.400Z,25.30
2023-06-13T18:22:10.296Z,25.50
2023-06-13T18:24:37.364Z,25.50
2023-06-13T18:27:04.438Z,25.40
2023-06-13T18:29:31.298Z,25.50
2023-06-13T18:31:58.075Z,25.60
2023-06-13T18:34:24.815Z,25.70
2023-06-13T18:36:51.673Z,25.30
2023-06-13T18:39:18.488Z,25.10
2023-06-13T18:41:45.284Z,25.10
2023-06-13T18:44:14.122Z,25.30
2023-06-13T18:46:40.975Z,25.20
2023-06-13T18:49:08.135Z,25.10
2023-06-13T18:51:35.055Z,25.00
2023-06-13T18:54:01.957Z,24.90
2023-06-13T18:56:29.082Z,24.90
2023-06-13T18:58:57.992Z,24.70
2023-06-13T19:01:25.878Z,24.50
2023-06-13T19:03:54.411Z,24.50
2023-06-13T19:06:21.358Z,24.60
2023-06-13T19:08:49.612Z,24.50
2023-06-13T19:11:16.415Z,24.50
2023-06-13T19:13:43.401Z,24.30
2023-06-13T19:16:11.510Z,24.20
2023-06-13T19:18:38.642Z,24.10
2023-06-13T19:21:06.441Z,23.90
2023-06-13T19:23:33.287Z,24.00
2023-06-13T19:26:00.495Z,24.00
2023-06-13T19:28:27.350Z,24.10
2023-06-13T19:30:54.182Z,23.90
2023-06-13T19:33:21.651Z,23.90
2023-06-13T19:35:48.616Z,23.80
2023-06-13T19:38:19.033Z,24.20
2023-06-13T19:40:45.869Z,24.30
2023-06-13T19:43:12.968Z,24.30
2023-06-13T19:45:39.691Z,24.30
2023-06-13T19:48:09.114Z,24.40
2023-06-13T19:50:36.136Z,24.20
2023-06-13T19:53:04.503Z,24.30
2023-06-13T19:55:33.024Z,24.30
2023-06-13T19:57:59.911Z,24.20
2023-06-13T20:00:29.161Z,24.20
2023-06-13T20:02:57.666Z,24.10
2023-06-13T20:05:25.533Z,24.20
2023-06-13T20:07:52.674Z,24.00
2023-06-13T20:10:19.441Z,23.90
2023-06-13T20:12:46.202Z,23.70
2023-06-13T20:15:13.255Z,23.70
2023-06-13T20:17:40.291Z,23.60
2023-06-13T20:20:13.698Z,23.70
2023-06-13T20:22:42.749Z,23.60
2023-06-13T20:25:10.526Z,23.80
2023-06-13T20:27:38.241Z,23.80
2023-06-13T20:30:09.666Z,23.60
2023-06-13T20:32:37.306Z,23.60
2023-06-13T20:35:04.644Z,23.70
2023-06-13T20:37:31.572Z,23.70
2023-06-13T20:40:05.362Z,23.80
2023-06-13T20:42:32.994Z,23.80
2023-06-13T20:45:09.237Z,23.70
2023-06-13T20:47:37.874Z,23.60
2023-06-13T20:50:11.427Z,23.70
2023-06-13T20:52:38.772Z,23.60
2023-06-13T20:55:07.280Z,23.60
2023-06-13T20:57:36.941Z,23.60
2023-06-13T21:00:21.403Z,23.50
2023-06-13T21:02:53.451Z,23.50
2023-06-13T21:05:21.891Z,23.50
2023-06-13T21:07:49.084Z,23.30
2023-06-13T21:10:19.708Z,23.20
2023-06-13T21:12:47.563Z,23.10
2023-06-13T21:15:20.112Z,22.90
2023-06-13T21:17:48.855Z,22.80
2023-06-13T21:20:16.977Z,22.90
2023-06-13T21:22:45.650Z,22.90
2023-06-13T21:25:14.626Z,22.90
2023-06-13T21:27:42.067Z,22.90
2023-06-13T21:30:15.312Z,22.80
2023-06-13T21:32:44.229Z,22.80
2023-06-13T21:35:11.961Z,22.70
2023-06-13T21:37:39.076Z,22.80
2023-06-13T21:40:08.011Z,22.70
2023-06-13T21:42:36.392Z,22.70
2023-06-13T21:45:05.118Z,22.60
2023-06-13T21:47:34.523Z,22.50
2023-06-13T21:50:06.004Z,22.40
2023-06-13T21:52:32.958Z,22.30
2023-06-13T21:54:59.814Z,22.30
2023-06-13T21:57:26.569Z,22.40
2023-06-13T21:59:53.356Z,22.20
2023-06-13T22:02:20.403Z,22.30
2023-06-13T22:04:47.301Z,22.20
2023-06-13T22:07:15.694Z,22.00
2023-06-13T22:09:42.455Z,22.00
2023-06-13T22:12:10.795Z,21.90
2023-06-13T22:14:37.534Z,21.90
2023-06-13T22:17:05.367Z,21.80
2023-06-13T22:19:33.356Z,21.80
2023-06-13T22:22:00.810Z,21.80
2023-06-13T22:24:28.050Z,21.60
2023-06-13T22:26:55.202Z,21.60
2023-06-13T22:29:22.792Z,21.60
2023-06-13T22:31:50.176Z,21.50
2023-06-13T22:34:17.070Z,21.50
2023-06-13T22:36:43.764Z,21.40
2023-06-13T22:39:10.496Z,21.40
2023-06-13T22:41:37.258Z,21.30
2023-06-13T22:44:05.080Z,21.20
2023-06-13T22:46:31.940Z,21.20
2023-06-13T22:49:00.821Z,21.20
2023-06-13T22:51:28.022Z,21.20
2023-06-13T22:53:54.916Z,21.00
2023-06-13T22:56:21.829Z,21.00
2023-06-13T22:58:48.529Z,21.00
2023-06-13T23:01:15.281Z,20.90
2023-06-13T23:03:42.126Z,20.80
2023-06-13T23:06:08.918Z,20.60
2023-06-13T23:08:35.675Z,20.40
2023-06-13T23:11:02.478Z,20.20
2023-06-13T23:13:29.977Z,20.30
2023-06-13T23:15:59.302Z,20.40
2023-06-13T23:18:29.077Z,20.40
2023-06-13T23:20:55.751Z,20.50
2023-06-13T23:23:22.542Z,20.40
2023-06-13T23:25:50.256Z,20.30
2023-06-13T23:28:17.796Z,20.30
2023-06-13T23:30:45.513Z,20.30
2023-06-13T23:33:12.814Z,20.20
2023-06-13T23:35:39.839Z,20.00
2023-06-13T23:38:07.135Z,19.90
2023-06-13T23:40:33.889Z,19.60
2023-06-13T23:43:06.155Z,19.50
2023-06-13T23:45:33.289Z,19.60
2023-06-13T23:47:59.989Z,19.60
2023-06-13T23:50:27.915Z,19.60
2023-06-13T23:52:54.706Z,19.60
2023-06-13T23:55:21.536Z,19.60
2023-06-13T23:57:48.283Z,19.50
